Time;durP1;ratioP1;P1;durP2;ratioP2;P2;SDS_P1;SDS_P2;PMS_P1;PMS_P2;Temp;Humidity;BMP_temperature;BMP_pressure;BME280_temperature;BME280_humidity;BME280_pressure;Samples;Min_cycle;Max_cycle;Signal;HPM_P1;HPM_P2
2022/07/28 00:00:11;;;;;;;0.10;0.10;;;28.20;34.70;;;;;;5045912;28;20045;-56
2022/07/28 00:02:38;;;;;;;0.73;0.10;;;28.20;34.70;;;;;;5046164;28;20056;-56
2022/07/28 00:05:06;;;;;;;0.00;0.00;;;28.20;34.80;;;;;;5046139;28;20045;-55
2022/07/28 00:07:33;;;;;;;0.90;0.10;;;28.20;34.80;;;;;;5045644;28;20051;-56
2022/07/28 00:10:01;;;;;;;0.17;0.00;;;28.20;34.80;;;;;;5046046;28;20087;-56
2022/07/28 00:12:28;;;;;;;0.10;0.10;;;28.20;34.90;;;;;;5045861;28;20429;-54
2022/07/28 00:14:55;;;;;;;0.20;0.00;;;28.20;34.90;;;;;;5045882;28;20037;-54
2022/07/28 00:17:23;;;;;;;0.65;0.10;;;28.20;35.00;;;;;;5046339;28;20123;-56
2022/07/28 00:19:50;;;;;;;0.10;0.05;;;28.20;35.00;;;;;;5046186;28;20565;-56
2022/07/28 00:22:17;;;;;;;0.55;0.10;;;28.10;35.00;;;;;;5045651;28;20495;-54
2022/07/28 00:24:45;;;;;;;0.47;0.30;;;28.10;35.00;;;;;;5046150;28;20041;-58
2022/07/28 00:27:13;;;;;;;0.90;0.00;;;28.10;35.60;;;;;;5049117;28;20563;-53
2022/07/28 00:29:40;;;;;;;0.90;0.00;;;28.10;35.10;;;;;;5049345;28;20063;-54
2022/07/28 00:32:07;;;;;;;0.10;0.00;;;28.10;35.10;;;;;;5049802;28;20053;-53
2022/07/28 00:34:34;;;;;;;0.13;0.13;;;28.10;35.10;;;;;;5049731;28;20059;-53
2022/07/28 00:37:01;;;;;;;0.20;0.20;;;28.10;35.10;;;;;;5049353;28;20307;-53
2022/07/28 00:39:28;;;;;;;0.20;0.00;;;28.10;35.20;;;;;;5049473;28;20053;-52
2022/07/28 00:41:56;;;;;;;0.17;0.17;;;28.10;35.20;;;;;;5049479;28;20124;-56
2022/07/28 00:44:24;;;;;;;0.17;0.10;;;28.10;35.20;;;;;;5049915;28;20046;-57
2022/07/28 00:46:51;;;;;;;0.63;0.10;;;28.10;35.30;;;;;;5049276;28;20173;-56
2022/07/28 00:49:18;;;;;;;0.20;0.20;;;28.10;35.30;;;;;;5049156;28;20051;-57
2022/07/28 00:51:46;;;;;;;1.42;0.10;;;28.10;35.30;;;;;;5049267;28;20049;-56
2022/07/28 00:54:14;;;;;;;0.70;0.10;;;28.10;35.30;;;;;;5048921;28;20048;-56
2022/07/28 00:56:41;;;;;;;0.85;0.10;;;28.10;35.30;;;;;;5049193;28;20511;-55
2022/07/28 00:59:08;;;;;;;0.17;0.13;;;28.00;35.30;;;;;;5049472;28;20581;-53
2022/07/28 01:01:37;;;;;;;0.00;0.00;;;28.10;35.40;;;;;;5048747;28;20592;-56
2022/07/28 01:04:05;;;;;;;0.90;0.10;;;28.00;35.30;;;;;;5044398;28;20045;-51
2022/07/28 01:06:54;;;;;;;0.20;0.10;;;28.00;35.30;;;;;;5047396;28;20132;-54
2022/07/28 01:09:44;;;;;;;0.00;0.00;;;28.00;35.30;;;;;;5049087;28;20128;-55
2022/07/28 01:12:21;;;;;;;0.28;0.00;;;28.00;35.30;;;;;;5048897;28;20048;-54
2022/07/28 01:14:51;;;;;;;0.40;0.00;;;28.00;35.40;;;;;;5048621;28;20040;-56
2022/07/28 01:17:26;;;;;;;0.10;0.10;;;28.00;35.30;;;;;;5048500;28;20055;-57
2022/07/28 01:19:59;;;;;;;;;;;28.00;35.30;;;;;;5043102;28;20051;-56
2022/07/28 01:22:31;;;;;;;0.55;0.10;;;28.00;35.30;;;;;;5042465;28;20409;-55
2022/07/28 01:25:07;;;;;;;0.95;0.00;;;27.90;35.40;;;;;;5048440;28;20076;-56
2022/07/28 01:27:50;;;;;;;1.98;0.00;;;27.90;35.30;;;;;;5048494;28;20055;-55
2022/07/28 01:30:34;;;;;;;0.17;0.00;;;27.90;35.30;;;;;;5048159;28;20072;-55
2022/07/28 01:33:08;;;;;;;0.10;0.00;;;28.00;35.30;;;;;;5041670;28;20152;-55
2022/07/28 01:35:42;;;;;;;0.30;0.00;;;27.90;35.30;;;;;;5048361;28;20148;-53
2022/07/28 01:38:11;;;;;;;0.05;0.00;;;27.90;35.30;;;;;;5048151;28;20578;-55
2022/07/28 01:40:39;;;;;;;0.60;0.38;;;27.90;35.30;;;;;;5047973;28;20049;-56
2022/07/28 01:43:11;;;;;;;0.30;0.00;;;27.90;35.90;;;;;;5048007;28;20127;-52
2022/07/28 01:45:41;;;;;;;1.17;0.32;;;27.90;35.30;;;;;;5048013;28;20160;-55
2022/07/28 01:48:10;;;;;;;0.00;0.00;;;27.90;35.30;;;;;;5048443;28;20045;-55
2022/07/28 01:50:39;;;;;;;0.10;0.00;;;27.90;35.30;;;;;;5047405;28;20423;-56
2022/07/28 01:53:10;;;;;;;0.80;0.08;;;27.90;35.30;;;;;;5043099;28;20415;-55
2022/07/28 01:55:39;;;;;;;0.75;0.00;;;27.90;35.30;;;;;;5047708;28;20048;-55
2022/07/28 01:58:07;;;;;;;0.30;0.00;;;27.90;35.30;;;;;;5048109;28;20041;-55
2022/07/28 02:00:36;;;;;;;0.03;0.00;;;27.90;35.30;;;;;;5047809;28;20053;-50
2022/07/28 02:03:09;;;;;;;0.52;0.10;;;27.90;35.30;;;;;;5048164;28;20036;-56
2022/07/28 02:05:38;;;;;;;0.05;0.00;;;27.90;35.30;;;;;;5047382;28;20053;-56
2022/07/28 02:08:06;;;;;;;0.43;0.00;;;27.90;35.30;;;;;;5048085;28;20041;-56
2022/07/28 02:10:34;;;;;;;0.03;0.00;;;27.90;35.30;;;;;;5047760;28;20048;-53
2022/07/28 02:13:02;;;;;;;1.65;0.10;;;27.90;35.30;;;;;;5047608;28;20076;-53
2022/07/28 02:15:31;;;;;;;0.35;0.10;;;27.90;35.30;;;;;;5047317;28;20073;-53
2022/07/28 02:17:59;;;;;;;0.10;0.00;;;27.90;35.30;;;;;;5046551;28;20406;-49
2022/07/28 02:20:28;;;;;;;0.00;0.00;;;27.80;35.20;;;;;;5047698;28;20470;-53
2022/07/28 02:22:57;;;;;;;0.03;0.00;;;27.80;35.30;;;;;;5047620;28;20128;-54
2022/07/28 02:25:24;;;;;;;0.13;0.13;;;27.80;35.30;;;;;;5046818;28;20122;-54
2022/07/28 02:28:00;;;;;;;0.10;0.00;;;27.90;35.40;;;;;;5047426;28;20041;-54
2022/07/28 02:30:30;;;;;;;;;;;27.90;35.30;;;;;;5047538;28;20053;-54
2022/07/28 02:33:03;;;;;;;0.20;0.00;;;27.80;35.30;;;;;;5047128;28;20027;-55
2022/07/28 02:35:35;;;;;;;0.10;0.00;;;27.80;35.40;;;;;;5041802;28;20041;-54
2022/07/28 02:38:07;;;;;;;0.90;0.00;;;27.80;35.40;;;;;;5046936;28;20071;-55
2022/07/28 02:40:36;;;;;;;0.77;0.77;;;27.80;35.30;;;;;;5046966;28;20056;-54
2022/07/28 02:43:06;;;;;;;0.15;0.00;;;27.80;35.30;;;;;;5047318;28;20041;-51
2022/07/28 02:45:35;;;;;;;0.20;0.10;;;27.80;35.20;;;;;;5047115;28;20044;-55
2022/07/28 02:48:07;;;;;;;0.63;0.00;;;27.80;35.20;;;;;;5046589;28;20037;-55
2022/07/28 02:50:35;;;;;;;0.03;0.00;;;27.80;35.20;;;;;;5047122;28;20045;-56
2022/07/28 02:53:04;;;;;;;0.10;0.00;;;27.80;35.20;;;;;;5047043;28;20045;-56
2022/07/28 02:55:32;;;;;;;0.13;0.00;;;27.80;35.20;;;;;;5046995;28;20041;-53
2022/07/28 02:58:00;;;;;;;0.25;0.00;;;27.80;35.30;;;;;;5046908;28;20126;-54
2022/07/28 03:00:28;;;;;;;0.20;0.00;;;27.80;35.30;;;;;;5046901;28;20049;-55
2022/07/28 03:02:57;;;;;;;0.00;0.00;;;27.80;35.30;;;;;;5046569;28;20069;-53
2022/07/28 03:05:24;;;;;;;0.17;0.00;;;27.80;35.30;;;;;;5046995;28;20053;-55
2022/07/28 03:07:53;;;;;;;0.13;0.10;;;27.80;35.30;;;;;;5046482;28;20060;-54
2022/07/28 03:10:24;;;;;;;0.00;0.00;;;27.80;35.30;;;;;;5039902;28;20048;-55
2022/07/28 03:12:52;;;;;;;0.73;0.10;;;27.80;35.30;;;;;;5046554;28;20072;-52
2022/07/28 03:15:19;;;;;;;0.10;0.00;;;27.80;35.30;;;;;;5046315;28;20151;-55
2022/07/28 03:17:46;;;;;;;0.10;0.10;;;27.80;35.30;;;;;;5046643;28;20069;-55
2022/07/28 03:20:13;;;;;;;0.00;0.00;;;27.80;35.30;;;;;;5046921;28;20411;-56
2022/07/28 03:22:40;;;;;;;1.48;0.00;;;27.80;35.30;;;;;;5046573;28;20041;-54
2022/07/28 03:25:15;;;;;;;2.00;0.10;;;27.80;35.30;;;;;;5046895;28;20037;-55
2022/07/28 03:27:48;;;;;;;5.90;0.35;;;27.80;35.30;;;;;;5046613;28;20073;-55
2022/07/28 03:30:19;;;;;;;0.10;0.10;;;27.70;35.20;;;;;;5046625;28;20115;-57
2022/07/28 03:32:50;;;;;;;0.40;0.00;;;27.70;35.20;;;;;;5046095;28;20041;-52
2022/07/28 03:35:18;;;;;;;0.10;0.00;;;27.70;35.20;;;;;;5045943;28;20200;-56
2022/07/28 03:37:52;;;;;;;0.40;0.10;;;27.70;35.20;;;;;;5046522;28;20515;-55
2022/07/28 03:40:24;;;;;;;0.00;0.00;;;27.80;35.20;;;;;;5047500;28;20350;-52
2022/07/28 03:42:53;;;;;;;1.88;0.10;;;27.70;35.10;;;;;;5046283;28;20041;-56
2022/07/28 03:45:21;;;;;;;0.25;0.00;;;27.70;35.20;;;;;;5045826;28;20045;-49
2022/07/28 03:47:52;;;;;;;0.35;0.00;;;27.80;35.20;;;;;;5046299;28;20041;-50
2022/07/28 03:50:22;;;;;;;0.00;0.00;;;27.70;35.10;;;;;;5046206;28;20071;-51
2022/07/28 03:52:49;;;;;;;0.10;0.00;;;27.70;35.10;;;;;;5044167;28;20140;-53
2022/07/28 03:55:17;;;;;;;1.48;0.13;;;27.70;35.10;;;;;;5046469;28;20052;-51
2022/07/28 03:57:46;;;;;;;0.00;0.00;;;27.70;35.10;;;;;;5046130;28;20059;-53
2022/07/28 04:00:14;;;;;;;2.83;0.28;;;27.70;35.10;;;;;;5047577;28;20052;-53
2022/07/28 04:02:42;;;;;;;0.70;0.10;;;27.70;35.10;;;;;;5049939;28;20040;-54
2022/07/28 04:05:11;;;;;;;0.35;0.10;;;27.70;35.10;;;;;;5049894;28;20523;-51
2022/07/28 04:07:39;;;;;;;1.75;0.00;;;27.70;35.10;;;;;;5049988;28;20426;-54
2022/07/28 04:10:07;;;;;;;0.47;0.00;;;27.70;35.10;;;;;;5049555;28;20047;-54
2022/07/28 04:12:47;;;;;;;0.38;0.10;;;27.70;35.10;;;;;;5049693;28;20049;-53
2022/07/28 04:15:15;;;;;;;0.80;0.00;;;27.70;35.10;;;;;;5049089;28;20048;-55
2022/07/28 04:17:42;;;;;;;0.10;0.00;;;27.70;35.20;;;;;;5049729;28;20035;-54
2022/07/28 04:20:11;;;;;;;0.85;0.03;;;27.70;35.20;;;;;;5049715;28;20067;-53
2022/07/28 04:22:38;;;;;;;1.23;0.10;;;27.70;35.30;;;;;;5049827;28;20043;-53
2022/07/28 04:25:06;;;;;;;0.00;0.00;;;27.70;35.30;;;;;;5049027;28;20510;-55
2022/07/28 04:27:35;;;;;;;0.00;0.00;;;27.70;35.30;;;;;;5049585;28;20155;-54
2022/07/28 04:30:04;;;;;;;0.10;0.00;;;27.70;35.30;;;;;;5049172;28;20051;-55
2022/07/28 04:32:31;;;;;;;0.10;0.00;;;27.70;35.30;;;;;;5049153;28;20507;-54
2022/07/28 04:34:58;;;;;;;0.80;0.00;;;27.70;35.40;;;;;;5049044;28;20061;-52
2022/07/28 04:37:26;;;;;;;0.10;0.00;;;27.70;35.40;;;;;;5049401;28;20491;-55
2022/07/28 04:39:53;;;;;;;0.45;0.08;;;27.70;35.40;;;;;;5049148;28;20045;-55
2022/07/28 04:42:20;;;;;;;0.82;0.10;;;27.60;35.30;;;;;;5048777;28;20076;-52
2022/07/28 04:44:47;;;;;;;1.27;0.10;;;27.60;35.30;;;;;;5048544;28;20041;-55
2022/07/28 04:47:16;;;;;;;0.13;0.10;;;27.70;35.30;;;;;;5050150;28;20123;-56
2022/07/28 04:49:43;;;;;;;0.20;0.20;;;27.60;35.20;;;;;;5042453;28;20111;-56
2022/07/28 04:52:11;;;;;;;0.17;0.10;;;27.60;35.20;;;;;;5049262;28;20041;-50
2022/07/28 04:54:38;;;;;;;0.55;0.08;;;27.70;35.30;;;;;;5048781;28;20067;-53
2022/07/28 04:57:06;;;;;;;4.32;0.75;;;27.60;35.20;;;;;;5048996;28;20051;-57
2022/07/28 04:59:34;;;;;;;0.45;0.10;;;27.60;35.20;;;;;;5048848;28;20048;-57
2022/07/28 05:02:02;;;;;;;0.05;0.00;;;27.60;35.20;;;;;;5048825;28;20403;-55
2022/07/28 05:04:30;;;;;;;0.15;0.10;;;27.60;35.20;;;;;;5048605;28;20057;-54
2022/07/28 05:06:57;;;;;;;0.10;0.03;;;27.60;35.20;;;;;;5048918;28;20049;-55
2022/07/28 05:09:25;;;;;;;0.43;0.00;;;27.60;35.30;;;;;;5041644;28;20067;-55
2022/07/28 05:11:52;;;;;;;0.15;0.00;;;27.60;35.30;;;;;;5047885;28;20060;-54
2022/07/28 05:14:19;;;;;;;1.85;0.00;;;27.60;35.30;;;;;;5048096;28;20076;-55
2022/07/28 05:16:46;;;;;;;0.90;0.10;;;27.60;35.20;;;;;;5046762;28;20068;-56
2022/07/28 05:19:13;;;;;;;0.10;0.00;;;27.60;35.20;;;;;;5048717;28;20148;-55
2022/07/28 05:21:42;;;;;;;0.10;0.00;;;27.60;35.10;;;;;;5048293;28;20041;-55
2022/07/28 05:24:09;;;;;;;0.20;0.20;;;27.60;35.10;;;;;;5048417;28;20128;-56
2022/07/28 05:26:36;;;;;;;0.10;0.00;;;27.60;35.10;;;;;;5048084;28;20048;-56
2022/07/28 05:29:03;;;;;;;0.63;0.52;;;27.60;35.20;;;;;;5048261;28;20076;-55
2022/07/28 05:31:30;;;;;;;0.10;0.10;;;27.60;35.20;;;;;;5047877;28;20037;-55
2022/07/28 05:33:57;;;;;;;0.20;0.10;;;27.60;35.30;;;;;;5048242;28;20589;-55
2022/07/28 05:36:24;;;;;;;1.15;0.10;;;27.60;35.30;;;;;;5047749;28;20037;-52
2022/07/28 05:38:52;;;;;;;0.85;0.10;;;27.60;35.30;;;;;;5047806;28;20126;-54
2022/07/28 05:41:19;;;;;;;0.65;0.10;;;27.60;35.30;;;;;;5047654;28;20041;-55
2022/07/28 05:43:47;;;;;;;0.50;0.38;;;27.60;35.30;;;;;;5043945;28;20080;-55
2022/07/28 05:46:13;;;;;;;1.30;0.13;;;27.60;35.30;;;;;;5047225;28;20033;-55
2022/07/28 05:48:41;;;;;;;0.32;0.10;;;27.70;35.40;;;;;;5047222;28;20828;-53
2022/07/28 05:51:08;;;;;;;0.65;0.10;;;27.60;35.40;;;;;;5047571;28;20037;-56
2022/07/28 05:53:35;;;;;;;0.55;0.10;;;27.60;35.40;;;;;;5047801;28;20164;-53
2022/07/28 05:56:03;;;;;;;0.63;0.10;;;27.60;35.40;;;;;;5047013;28;20045;-54
2022/07/28 05:58:31;;;;;;;0.10;0.00;;;27.60;35.40;;;;;;5047124;28;20041;-55
2022/07/28 06:01:01;;;;;;;0.88;0.05;;;27.60;35.40;;;;;;5047163;28;20029;-52
2022/07/28 06:03:30;;;;;;;0.10;0.10;;;27.60;36.00;;;;;;5047223;28;20060;-54
2022/07/28 06:05:57;;;;;;;3.30;0.08;;;27.60;35.40;;;;;;5047063;28;20144;-52
2022/07/28 06:08:24;;;;;;;0.52;0.52;;;27.70;35.40;;;;;;5047202;28;20044;-55
2022/07/28 06:11:10;;;;;;;1.35;0.15;;;27.60;35.40;;;;;;5047071;28;20072;-55
2022/07/28 06:13:39;;;;;;;1.40;0.30;;;27.60;35.40;;;;;;5047272;28;20049;-52
2022/07/28 06:16:07;;;;;;;0.50;0.10;;;27.60;35.40;;;;;;5045865;28;20045;-55
2022/07/28 06:18:34;;;;;;;0.70;0.10;;;27.60;35.40;;;;;;5040450;28;20399;-54
2022/07/28 06:21:01;;;;;;;0.10;0.10;;;27.60;35.40;;;;;;5047598;28;20041;-56
2022/07/28 06:23:29;;;;;;;1.60;0.10;;;27.60;35.40;;;;;;5046177;28;20052;-54
2022/07/28 06:25:56;;;;;;;1.00;0.10;;;27.60;35.40;;;;;;5045384;28;20136;-56
2022/07/28 06:28:23;;;;;;;1.27;0.40;;;27.60;35.40;;;;;;5047169;28;20537;-55
2022/07/28 06:30:51;;;;;;;1.10;0.10;;;27.70;35.40;;;;;;5047294;28;20392;-53
2022/07/28 06:33:18;;;;;;;4.63;0.10;;;27.70;35.50;;;;;;5047150;28;20041;-55
2022/07/28 06:35:46;;;;;;;3.17;0.20;;;27.70;35.60;;;;;;5047299;28;20406;-55
2022/07/28 06:38:13;;;;;;;3.03;0.10;;;27.70;35.60;;;;;;5047447;28;20158;-55
2022/07/28 06:40:41;;;;;;;3.38;0.10;;;27.70;35.60;;;;;;5047009;28;20106;-56
2022/07/28 06:43:09;;;;;;;4.85;0.10;;;27.70;35.70;;;;;;5047162;28;20594;-57
2022/07/28 06:45:36;;;;;;;3.60;0.60;;;27.70;35.70;;;;;;5046955;28;20479;-57
2022/07/28 06:48:06;;;;;;;2.95;0.60;;;27.70;35.70;;;;;;5047155;28;20083;-55
2022/07/28 06:50:33;;;;;;;2.20;0.60;;;27.70;35.70;;;;;;5046747;28;20135;-57
2022/07/28 06:53:01;;;;;;;1.38;0.10;;;27.70;35.70;;;;;;5046832;28;20141;-55
2022/07/28 06:55:28;;;;;;;2.17;0.10;;;27.70;35.80;;;;;;5046381;28;20068;-57
2022/07/28 06:57:57;;;;;;;1.50;0.47;;;27.70;35.80;;;;;;5046076;28;20533;-59
2022/07/28 07:00:24;;;;;;;3.80;0.10;;;27.80;35.90;;;;;;5050981;28;20102;-55
2022/07/28 07:02:51;;;;;;;1.95;0.15;;;27.80;35.90;;;;;;5056430;28;20037;-55
2022/07/28 07:05:19;;;;;;;2.05;0.10;;;27.80;35.90;;;;;;5050040;28;20074;-56
2022/07/28 07:07:46;;;;;;;3.72;0.30;;;27.80;35.80;;;;;;5052675;28;20047;-54
2022/07/28 07:10:13;;;;;;;2.50;0.68;;;27.80;35.80;;;;;;5052560;28;20077;-54
2022/07/28 07:12:40;;;;;;;8.60;0.55;;;27.80;35.80;;;;;;5057059;28;20895;-55
2022/07/28 07:15:09;;;;;;;1.75;0.43;;;27.90;35.30;;;;;;5047466;28;20041;-55
2022/07/28 07:17:37;;;;;;;8.23;0.70;;;27.80;34.40;;;;;;5035783;28;20337;-59
2022/07/28 07:20:05;;;;;;;8.90;0.75;;;27.80;33.30;;;;;;5040482;28;20045;-58
2022/07/28 07:22:34;;;;;;;1.98;0.20;;;27.80;33.00;;;;;;5041707;28;20072;-61
2022/07/28 07:25:08;;;;;;;2.85;0.75;;;27.90;32.80;;;;;;5045009;28;20047;-57
2022/07/28 07:27:36;;;;;;;2.05;0.10;;;28.00;32.50;;;;;;5041906;28;20056;-55
2022/07/28 07:30:04;;;;;;;4.57;0.20;;;28.00;32.30;;;;;;5040455;28;21078;-55
2022/07/28 07:32:31;;;;;;;2.58;0.20;;;28.20;32.20;;;;;;5041666;28;20045;-56
2022/07/28 07:34:58;;;;;;;1.67;0.93;;;28.50;31.90;;;;;;5042903;28;20044;-57
2022/07/28 07:37:25;;;;;;;2.17;0.17;;;28.90;31.60;;;;;;5047642;28;20040;-56
2022/07/28 07:39:53;;;;;;;3.22;0.20;;;29.30;31.10;;;;;;5040077;28;20483;-59
2022/07/28 07:42:20;;;;;;;2.90;0.50;;;29.70;30.50;;;;;;5045778;28;20045;-57
2022/07/28 07:44:47;;;;;;;4.03;0.57;;;30.20;30.00;;;;;;5045782;28;20071;-55
2022/07/28 07:47:14;;;;;;;10.48;0.40;;;30.60;29.80;;;;;;5045873;28;20475;-56
2022/07/28 07:49:41;;;;;;;1.83;0.40;;;30.90;29.40;;;;;;5043012;28;20580;-55
2022/07/28 07:52:08;;;;;;;6.10;0.20;;;31.30;29.10;;;;;;5045371;28;20037;-57
2022/07/28 07:54:35;;;;;;;1.88;0.20;;;31.60;28.80;;;;;;5046009;28;20052;-58
2022/07/28 07:57:04;;;;;;;6.97;0.43;;;31.90;28.50;;;;;;5045571;28;20041;-60
2022/07/28 07:59:31;;;;;;;3.58;0.43;;;32.30;28.30;;;;;;5043422;28;20056;-65
2022/07/28 08:01:58;;;;;;;2.22;0.30;;;32.60;28.10;;;;;;5045439;28;20037;-61
2022/07/28 08:04:25;;;;;;;2.80;0.30;;;32.80;27.80;;;;;;5045763;28;20045;-64
2022/07/28 08:06:52;;;;;;;7.70;0.40;;;33.00;27.60;;;;;;5045442;28;20049;-59
2022/07/28 08:09:20;;;;;;;3.40;0.28;;;33.20;27.60;;;;;;5045148;28;20040;-60
2022/07/28 08:11:47;;;;;;;4.93;0.93;;;33.40;27.40;;;;;;5044278;28;20573;-57
2022/07/28 08:14:16;;;;;;;2.65;0.40;;;33.50;27.20;;;;;;5045915;28;20052;-58
2022/07/28 08:16:43;;;;;;;9.27;0.80;;;33.70;27.00;;;;;;5045554;28;20045;-57
2022/07/28 08:19:10;;;;;;;5.35;0.30;;;33.80;26.90;;;;;;5045252;28;20041;-59
2022/07/28 08:21:37;;;;;;;5.68;0.60;;;33.90;26.70;;;;;;5047463;28;20048;-57
2022/07/28 08:24:04;;;;;;;6.82;0.25;;;34.00;26.60;;;;;;5045532;28;20120;-58
2022/07/28 08:26:31;;;;;;;0.80;0.28;;;34.20;26.50;;;;;;5045227;28;20099;-59
2022/07/28 08:28:58;;;;;;;2.92;0.20;;;34.30;26.30;;;;;;5045712;28;20527;-62
2022/07/28 08:31:27;;;;;;;5.97;0.40;;;34.40;26.30;;;;;;5042816;28;20537;-61
2022/07/28 08:33:54;;;;;;;3.03;0.30;;;34.50;26.40;;;;;;5048287;28;20045;-61
2022/07/28 08:36:21;;;;;;;3.22;0.93;;;34.50;26.00;;;;;;5044145;28;20052;-60
2022/07/28 08:38:48;;;;;;;0.93;0.20;;;34.50;26.10;;;;;;5047728;28;20437;-61
2022/07/28 08:41:20;;;;;;;2.17;0.20;;;34.30;26.00;;;;;;5040996;28;20145;-59
2022/07/28 08:43:49;;;;;;;8.75;0.40;;;34.10;26.20;;;;;;5048862;28;20168;-60
2022/07/28 08:46:19;;;;;;;3.78;0.65;;;33.80;26.30;;;;;;5043734;28;20131;-63
2022/07/28 08:48:48;;;;;;;9.52;0.85;;;33.60;26.40;;;;;;5044702;28;20064;-63
2022/07/28 08:51:16;;;;;;;5.38;0.52;;;33.40;26.50;;;;;;5042148;28;20049;-63
2022/07/28 08:53:43;;;;;;;1.65;0.15;;;33.20;26.60;;;;;;5044673;28;20139;-65
2022/07/28 08:56:14;;;;;;;5.40;0.40;;;33.00;26.80;;;;;;5044326;28;20040;-63
2022/07/28 08:58:42;;;;;;;3.33;0.45;;;32.80;27.10;;;;;;5044687;28;20124;-62
2022/07/28 09:01:09;;;;;;;2.70;0.28;;;32.60;27.30;;;;;;5041980;28;20041;-62
2022/07/28 09:03:38;;;;;;;9.50;0.50;;;32.40;27.30;;;;;;5044561;28;20045;-62
2022/07/28 09:06:07;;;;;;;7.78;0.40;;;32.20;27.80;;;;;;5044582;28;20450;-64
2022/07/28 09:08:34;;;;;;;1.40;0.52;;;32.00;27.60;;;;;;5024018;28;20055;-64
2022/07/28 09:11:02;;;;;;;2.35;0.30;;;31.90;27.80;;;;;;5040688;28;20522;-66
2022/07/28 09:13:29;;;;;;;4.43;0.47;;;31.70;28.00;;;;;;5044408;28;20132;-65
2022/07/28 09:15:58;;;;;;;5.00;0.20;;;31.60;28.10;;;;;;5043762;28;20032;-67
2022/07/28 09:18:25;;;;;;;3.15;0.70;;;31.50;28.20;;;;;;5047640;28;20839;-65
2022/07/28 09:20:53;;;;;;;2.72;0.20;;;31.40;28.20;;;;;;5046060;28;20119;-65
2022/07/28 09:23:21;;;;;;;4.30;0.40;;;31.30;28.30;;;;;;5051760;28;20041;-66
2022/07/28 09:25:48;;;;;;;3.05;1.15;;;31.20;28.30;;;;;;5049091;28;20037;-66
2022/07/28 09:28:17;;;;;;;1.90;0.10;;;31.20;28.30;;;;;;5046401;28;20077;-64
2022/07/28 09:30:46;;;;;;;3.72;0.28;;;31.10;28.10;;;;;;5041070;28;20052;-64
2022/07/28 09:33:18;;;;;;;10.43;0.22;;;31.10;28.10;;;;;;5040752;28;20049;-65
2022/07/28 09:35:47;;;;;;;6.85;0.20;;;31.00;28.30;;;;;;5042490;28;20128;-64
2022/07/28 09:38:14;;;;;;;2.63;0.40;;;30.90;28.20;;;;;;5043835;28;20059;-65
2022/07/28 09:40:55;;;;;;;4.75;0.28;;;30.90;28.40;;;;;;5042554;28;20068;-67
2022/07/28 09:43:32;;;;;;;3.65;0.40;;;30.80;28.20;;;;;;5044492;28;20468;-67
2022/07/28 09:46:04;;;;;;;1.00;0.45;;;30.80;28.40;;;;;;5045407;28;20614;-67
2022/07/28 09:48:32;;;;;;;4.00;0.45;;;30.80;28.50;;;;;;5043061;28;20041;-67
2022/07/28 09:51:11;;;;;;;2.90;0.20;;;30.70;28.50;;;;;;5042774;28;20120;-67
2022/07/28 09:53:39;;;;;;;3.33;0.15;;;30.70;28.50;;;;;;5045281;28;20059;-66
2022/07/28 09:56:07;;;;;;;5.35;0.50;;;30.60;28.50;;;;;;5044684;28;20033;-68
2022/07/28 09:58:35;;;;;;;9.38;0.40;;;30.60;28.60;;;;;;5045612;28;20128;-66
2022/07/28 10:01:07;;;;;;;3.60;0.52;;;30.60;28.80;;;;;;5042213;28;20116;-66
2022/07/28 10:03:36;;;;;;;3.03;0.40;;;30.60;28.80;;;;;;5043895;28;20615;-66
2022/07/28 10:06:08;;;;;;;2.28;0.15;;;30.60;28.70;;;;;;5043414;28;20094;-67
2022/07/28 10:08:42;;;;;;;2.28;0.45;;;30.60;28.70;;;;;;5038801;28;20037;-65
2022/07/28 10:11:12;;;;;;;6.33;0.10;;;30.60;28.50;;;;;;5036993;28;20522;-66
2022/07/28 10:13:57;;;;;;;1.77;0.25;;;30.50;28.40;;;;;;5044317;28;21400;-67
2022/07/28 10:16:26;;;;;;;4.97;0.30;;;30.60;28.40;;;;;;5041694;28;20072;-66
2022/07/28 10:18:54;;;;;;;2.88;0.20;;;30.50;28.40;;;;;;5043417;28;20132;-65
2022/07/28 10:21:23;;;;;;;0.75;0.57;;;30.50;28.30;;;;;;5041072;28;20041;-65
2022/07/28 10:23:53;;;;;;;1.67;0.63;;;30.60;28.40;;;;;;5042244;28;20127;-66
2022/07/28 10:26:25;;;;;;;8.57;0.50;;;30.60;28.30;;;;;;5041997;28;20127;-65
2022/07/28 10:28:54;;;;;;;7.38;0.25;;;30.60;28.30;;;;;;5042937;28;20213;-67
2022/07/28 10:31:33;;;;;;;1.85;0.30;;;30.60;28.10;;;;;;5021676;28;20044;-66
2022/07/28 10:34:02;;;;;;;2.95;0.10;;;30.60;28.00;;;;;;5042714;28;20103;-68
2022/07/28 10:36:32;;;;;;;3.13;0.20;;;30.60;28.00;;;;;;5043343;28;20049;-66
2022/07/28 10:39:06;;;;;;;4.70;0.13;;;30.60;28.10;;;;;;5042922;28;20045;-67
2022/07/28 10:41:41;;;;;;;1.27;0.20;;;30.70;28.10;;;;;;5040221;28;20068;-67
2022/07/28 10:44:12;;;;;;;1.30;0.23;;;30.70;28.20;;;;;;5040490;28;20068;-66
2022/07/28 10:46:41;;;;;;;1.45;0.10;;;30.70;28.10;;;;;;5043253;28;20045;-66
2022/07/28 10:49:09;;;;;;;0.85;0.68;;;30.70;28.10;;;;;;5036398;28;20041;-65
2022/07/28 10:51:37;;;;;;;2.33;0.10;;;30.70;28.00;;;;;;5037251;28;20041;-65
2022/07/28 10:54:10;;;;;;;2.85;0.47;;;30.80;27.80;;;;;;5042499;28;20041;-65
2022/07/28 10:56:48;;;;;;;0.43;0.10;;;30.80;27.70;;;;;;5041358;28;20076;-65
2022/07/28 10:59:47;;;;;;;1.00;0.10;;;30.80;27.70;;;;;;5039798;28;20068;-65
2022/07/28 11:02:46;;;;;;;1.75;0.20;;;30.90;27.70;;;;;;5026974;28;20040;-65
2022/07/28 11:05:36;;;;;;;4.78;0.10;;;30.90;27.80;;;;;;5040954;28;20098;-56
2022/07/28 11:08:06;;;;;;;1.48;0.10;;;30.90;28.00;;;;;;5038549;28;20111;-63
2022/07/28 11:10:47;;;;;;;2.47;0.20;;;31.00;28.10;;;;;;5038249;28;20132;-70
2022/07/28 11:13:28;;;;;;;1.85;0.10;;;31.20;27.90;;;;;;5043296;28;20053;-69
2022/07/28 11:15:56;;;;;;;3.15;0.20;;;31.60;27.60;;;;;;5041204;28;20523;-72
2022/07/28 11:18:23;;;;;;;0.15;0.10;;;31.90;27.80;;;;;;5041334;28;20798;-72
2022/07/28 11:21:09;;;;;;;6.75;0.10;;;32.30;27.20;;;;;;5040162;28;20130;-69
2022/07/28 11:23:53;;;;;;;3.80;0.40;;;32.60;26.90;;;;;;5040890;28;20052;-71
2022/07/28 11:26:44;;;;;;;1.17;0.10;;;32.90;26.60;;;;;;5042192;28;20037;-62
2022/07/28 11:29:22;;;;;;;0.50;0.10;;;33.40;26.40;;;;;;5025626;28;20166;-61
2022/07/28 11:32:03;;;;;;;3.67;0.30;;;33.70;26.20;;;;;;5041296;28;20589;-66
2022/07/28 11:35:08;;;;;;;2.22;0.20;;;34.10;26.00;;;;;;5042687;28;20053;-65
2022/07/28 11:38:12;;;;;;;1.75;0.17;;;34.50;25.70;;;;;;5041583;28;20065;-63
2022/07/28 11:40:41;;;;;;;0.10;0.10;;;34.90;25.60;;;;;;4977875;28;20101;-61
2022/07/28 11:43:39;;;;;;;1.10;0.10;;;35.20;25.50;;;;;;4982244;28;20142;-67
2022/07/28 11:46:38;;;;;;;3.92;0.10;;;35.50;25.40;;;;;;4926112;29;20063;-67
2022/07/28 11:49:27;;;;;;;0.40;0.22;;;35.40;25.20;;;;;;4925697;29;20079;-66
2022/07/28 11:52:17;;;;;;;0.88;0.10;;;35.20;25.10;;;;;;4920890;29;20062;-65
2022/07/28 11:54:50;;;;;;;2.78;0.10;;;35.10;25.00;;;;;;4927005;29;20062;-66
2022/07/28 11:57:20;;;;;;;0.47;0.20;;;34.90;24.90;;;;;;4926198;29;20134;-65
2022/07/28 11:59:49;;;;;;;0.63;0.10;;;34.70;25.10;;;;;;4926664;29;20047;-64
2022/07/28 12:02:20;;;;;;;0.70;0.03;;;34.60;25.30;;;;;;4924790;29;20131;-63
2022/07/28 12:04:59;;;;;;;1.80;0.10;;;34.40;25.40;;;;;;4926989;29;20167;-64
2022/07/28 12:07:29;;;;;;;2.92;0.10;;;34.30;25.80;;;;;;4927272;29;20102;-69
2022/07/28 12:09:57;;;;;;;2.75;0.10;;;34.20;25.80;;;;;;4927119;29;20162;-67
2022/07/28 12:12:26;;;;;;;1.95;0.10;;;34.00;25.80;;;;;;4927295;29;20510;-67
2022/07/28 12:14:54;;;;;;;2.33;0.10;;;33.90;26.00;;;;;;4959261;28;20043;-67
2022/07/28 12:17:23;;;;;;;0.10;0.10;;;33.80;25.90;;;;;;4984569;28;20057;-68
2022/07/28 12:19:50;;;;;;;1.00;0.10;;;33.70;26.30;;;;;;4997294;28;20135;-67
2022/07/28 12:22:17;;;;;;;5.88;0.10;;;33.50;25.90;;;;;;5049947;28;20033;-67
2022/07/28 12:24:44;;;;;;;0.77;0.30;;;33.40;26.10;;;;;;5049956;28;20106;-66
2022/07/28 12:27:12;;;;;;;1.80;0.20;;;33.30;26.20;;;;;;5049731;28;20526;-67
2022/07/28 12:29:39;;;;;;;0.68;0.47;;;33.20;26.30;;;;;;5049845;28;20041;-67
2022/07/28 12:32:08;;;;;;;0.20;0.20;;;33.20;26.40;;;;;;5050049;28;20400;-66
2022/07/28 12:34:38;;;;;;;2.63;0.30;;;33.10;26.50;;;;;;5049919;28;20092;-66
2022/07/28 12:37:08;;;;;;;1.40;0.25;;;33.00;26.60;;;;;;5043567;28;20041;-66
2022/07/28 12:39:38;;;;;;;1.48;0.57;;;32.90;26.70;;;;;;5043582;28;20072;-66
2022/07/28 12:42:06;;;;;;;0.68;0.10;;;32.80;26.50;;;;;;5049550;28;20091;-66
2022/07/28 12:44:36;;;;;;;2.45;0.10;;;32.70;26.60;;;;;;5050084;28;20712;-66
2022/07/28 12:47:03;;;;;;;2.80;0.10;;;32.70;26.70;;;;;;5049772;28;20052;-67
2022/07/28 12:49:31;;;;;;;4.60;0.10;;;32.60;26.70;;;;;;5050030;28;20045;-66
2022/07/28 12:52:13;;;;;;;1.90;0.10;;;32.50;26.80;;;;;;5049609;28;20041;-66
2022/07/28 12:54:40;;;;;;;0.70;0.55;;;32.50;26.90;;;;;;5049416;28;20037;-66
2022/07/28 12:57:07;;;;;;;1.55;0.10;;;32.40;27.00;;;;;;5048949;28;20033;-65
2022/07/28 12:59:37;;;;;;;0.95;0.10;;;32.30;27.00;;;;;;5049001;28;20123;-65
2022/07/28 13:02:06;;;;;;;0.60;0.08;;;32.30;27.10;;;;;;5049378;28;20039;-66